createdAt,value
2023-04-29T00:00:33.259Z,8.83
2023-04-29T00:03:55.161Z,11.27
2023-04-29T00:07:16.641Z,10.93
2023-04-29T00:10:39.535Z,10.47
2023-04-29T00:14:02.378Z,12.13
2023-04-29T00:17:23.937Z,9.70
2023-04-29T00:20:45.356Z,11.07
2023-04-29T00:24:07.563Z,14.57
2023-04-29T00:27:29.119Z,14.03
2023-04-29T00:30:51.842Z,11.27
2023-04-29T00:34:13.092Z,9.77
2023-04-29T00:37:34.529Z,13.03
2023-04-29T00:40:56.703Z,12.17
2023-04-29T00:44:18.164Z,10.27
2023-04-29T00:47:40.886Z,12.63
2023-04-29T00:51:02.774Z,10.90
2023-04-29T00:54:24.385Z,13.63
2023-04-29T00:57:48.213Z,14.07
2023-04-29T01:01:09.982Z,10.13
2023-04-29T01:04:32.678Z,10.97
2023-04-29T01:08:05.439Z,10.17
2023-04-29T01:11:35.648Z,12.23
2023-04-29T01:15:11.741Z,11.53
2023-04-29T01:18:37.642Z,13.73
2023-04-29T01:22:00.161Z,11.53
2023-04-29T01:25:22.938Z,11.40
2023-04-29T01:28:52.084Z,11.37
2023-04-29T01:32:18.452Z,12.93
2023-04-29T01:35:51.629Z,14.30
2023-04-29T01:39:16.342Z,11.90
2023-04-29T01:42:43.115Z,13.37
2023-04-29T01:46:07.311Z,12.80
2023-04-29T01:49:29.808Z,12.17
2023-04-29T01:52:51.195Z,12.33
2023-04-29T01:56:12.582Z,14.60
2023-04-29T01:59:36.362Z,14.50
2023-04-29T02:02:58.031Z,11.27
2023-04-29T02:06:19.533Z,12.43
2023-04-29T02:09:40.994Z,12.70
2023-04-29T02:13:02.710Z,13.77
2023-04-29T02:16:25.487Z,12.83
2023-04-29T02:19:46.876Z,13.17
2023-04-29T02:23:08.421Z,12.70
2023-04-29T02:26:29.910Z,13.40
2023-04-29T02:29:51.904Z,13.10
2023-04-29T02:33:14.879Z,14.20
2023-04-29T02:36:36.374Z,14.57
2023-04-29T02:39:57.882Z,14.70
2023-04-29T02:43:19.572Z,15.17
2023-04-29T02:46:45.285Z,16.87
2023-04-29T02:50:09.022Z,15.77
2023-04-29T02:53:30.592Z,14.73
2023-04-29T02:56:51.985Z,15.67
2023-04-29T03:00:13.852Z,19.83
2023-04-29T03:03:35.345Z,14.03
2023-04-29T03:06:58.270Z,15.87
2023-04-29T03:10:19.754Z,13.83
2023-04-29T03:13:41.027Z,14.53
2023-04-29T03:17:02.764Z,12.33
2023-04-29T03:20:24.722Z,14.37
2023-04-29T03:23:47.483Z,15.83
2023-04-29T03:27:09.176Z,13.40
2023-04-29T03:30:31.730Z,15.27
2023-04-29T03:33:53.531Z,15.20
2023-04-29T03:37:16.436Z,12.77
2023-04-29T03:40:39.902Z,16.27
2023-04-29T03:44:01.453Z,13.80
2023-04-29T03:47:22.726Z,13.17
2023-04-29T03:50:43.891Z,13.30
2023-04-29T03:54:05.359Z,13.50
2023-04-29T03:57:28.073Z,15.07
2023-04-29T04:00:49.488Z,14.30
2023-04-29T04:04:11.220Z,13.03
2023-04-29T04:07:32.933Z,13.67
2023-04-29T04:10:54.298Z,14.77
2023-04-29T04:14:16.954Z,14.03
2023-04-29T04:17:38.365Z,13.47
2023-04-29T04:21:05.834Z,13.70
2023-04-29T04:24:27.264Z,12.97
2023-04-29T04:27:48.735Z,14.87
2023-04-29T04:31:11.357Z,13.77
2023-04-29T04:34:32.872Z,13.53
2023-04-29T04:37:54.595Z,14.73
2023-04-29T04:41:16.082Z,11.83
2023-04-29T04:44:37.533Z,15.07
2023-04-29T04:48:00.189Z,13.57
2023-04-29T04:51:21.870Z,11.00
2023-04-29T04:54:47.157Z,15.20
2023-04-29T04:58:08.388Z,11.13
2023-04-29T05:01:29.807Z,11.93
2023-04-29T05:04:52.614Z,14.10
2023-04-29T05:08:13.926Z,12.37
2023-04-29T05:11:35.572Z,13.33
2023-04-29T05:14:56.789Z,15.43
2023-04-29T05:18:18.384Z,11.57
2023-04-29T05:21:42.057Z,12.40
2023-04-29T05:25:03.717Z,11.37
2023-04-29T05:28:27.572Z,14.87
2023-04-29T05:31:50.130Z,12.77
2023-04-29T05:35:11.536Z,12.73
2023-04-29T05:38:34.465Z,14.63
2023-04-29T05:41:56.311Z,11.07
2023-04-29T05:45:18.028Z,12.73
2023-04-29T05:48:39.457Z,11.50
2023-04-29T05:52:04.081Z,9.03
2023-04-29T05:55:26.658Z,9.93
2023-04-29T05:58:48.000Z,11.50
2023-04-29T06:02:10.879Z,10.27
2023-04-29T06:05:32.562Z,9.77
2023-04-29T06:08:54.030Z,12.50
2023-04-29T06:12:17.461Z,9.07
2023-04-29T06:15:38.950Z,10.37
2023-04-29T06:19:00.480Z,8.87
2023-04-29T06:22:22.234Z,10.40
2023-04-29T06:25:44.039Z,7.73
2023-04-29T06:29:06.924Z,9.83
2023-04-29T06:32:28.192Z,8.63
2023-04-29T06:35:49.644Z,9.50
2023-04-29T06:39:11.246Z,9.33
2023-04-29T06:42:32.537Z,6.80
2023-04-29T06:45:55.151Z,9.13
2023-04-29T06:49:16.196Z,7.80
2023-04-29T06:52:37.561Z,12.80
2023-04-29T06:55:59.013Z,7.67
2023-04-29T06:59:20.630Z,9.63
2023-04-29T07:02:43.587Z,8.97
2023-04-29T07:06:04.862Z,10.47
2023-04-29T07:09:27.519Z,6.60
2023-04-29T07:12:49.069Z,7.70
2023-04-29T07:16:17.058Z,6.90
2023-04-29T07:19:39.790Z,7.00
2023-04-29T07:23:00.988Z,5.73
2023-04-29T07:26:22.679Z,7.53
2023-04-29T07:29:44.170Z,4.70
2023-04-29T07:33:05.683Z,7.47
2023-04-29T07:36:28.656Z,9.13
2023-04-29T07:39:49.771Z,5.63
2023-04-29T07:43:11.550Z,5.73
2023-04-29T07:46:33.085Z,7.37
2023-04-29T07:49:54.472Z,4.73
2023-04-29T07:53:18.047Z,6.33
2023-04-29T07:56:39.322Z,6.53
2023-04-29T08:00:00.897Z,5.90
2023-04-29T08:03:22.776Z,4.97
2023-04-29T08:06:44.927Z,5.27
2023-04-29T08:10:09.157Z,6.93
2023-04-29T08:13:30.509Z,6.60
2023-04-29T08:16:52.002Z,6.30
2023-04-29T08:20:15.082Z,5.33
2023-04-29T08:23:36.465Z,4.80
2023-04-29T08:26:59.163Z,6.80
2023-04-29T08:30:20.394Z,6.03
2023-04-29T08:33:42.244Z,6.10
2023-04-29T08:37:04.037Z,5.10
2023-04-29T08:40:25.291Z,5.23
2023-04-29T08:43:48.489Z,6.17
2023-04-29T08:47:10.099Z,7.13
2023-04-29T08:50:32.277Z,5.77
2023-04-29T08:53:53.760Z,5.83
2023-04-29T08:57:15.459Z,4.87
2023-04-29T09:00:39.327Z,4.93
2023-04-29T09:04:11.056Z,6.70
2023-04-29T09:07:33.935Z,5.70
2023-04-29T09:10:56.499Z,6.80
2023-04-29T09:14:18.091Z,6.40
2023-04-29T09:17:42.946Z,5.77
2023-04-29T09:21:14.384Z,5.40
2023-04-29T09:24:35.835Z,8.13
2023-04-29T09:27:57.583Z,6.20
2023-04-29T09:31:28.924Z,7.10
2023-04-29T09:34:52.224Z,6.67
2023-04-29T09:38:14.854Z,5.97
2023-04-29T09:41:36.132Z,6.57
2023-04-29T09:44:57.503Z,6.00
2023-04-29T09:48:19.130Z,6.03
2023-04-29T09:51:54.444Z,7.03
2023-04-29T09:55:17.265Z,5.37
2023-04-29T09:58:39.105Z,6.33
2023-04-29T10:02:00.678Z,7.03
2023-04-29T10:05:23.435Z,7.30
2023-04-29T10:08:48.701Z,5.33
2023-04-29T10:12:10.990Z,5.50
2023-04-29T10:15:42.978Z,5.90
2023-04-29T10:19:08.706Z,5.27
2023-04-29T10:22:34.586Z,6.47
2023-04-29T10:25:59.988Z,5.03
2023-04-29T10:29:23.338Z,4.83
2023-04-29T10:32:51.169Z,4.27
2023-04-29T10:36:14.934Z,4.37
2023-04-29T10:39:43.761Z,6.17
2023-04-29T10:43:06.734Z,4.70
2023-04-29T10:46:28.471Z,4.47
2023-04-29T10:50:06.182Z,5.93
2023-04-29T10:53:28.723Z,4.43
2023-04-29T10:56:51.343Z,4.70
2023-04-29T11:00:23.241Z,4.47
2023-04-29T11:03:50.620Z,5.00
2023-04-29T11:07:28.070Z,4.93
2023-04-29T11:10:53.161Z,5.13
2023-04-29T11:14:15.985Z,4.57
2023-04-29T11:17:39.388Z,5.47
2023-04-29T11:21:13.920Z,5.30
2023-04-29T11:24:36.378Z,5.17
2023-04-29T11:27:59.476Z,4.77
2023-04-29T11:31:21.252Z,5.37
2023-04-29T11:34:44.004Z,6.67
2023-04-29T11:38:05.915Z,5.20
2023-04-29T11:41:27.629Z,8.57
2023-04-29T11:44:52.335Z,4.97
2023-04-29T11:48:19.795Z,5.00
2023-04-29T11:51:42.749Z,4.97
2023-04-29T11:55:04.336Z,5.00
2023-04-29T11:58:26.014Z,5.57
2023-04-29T12:01:47.705Z,4.87
2023-04-29T12:05:09.953Z,4.57
2023-04-29T12:08:34.020Z,4.40
2023-04-29T12:11:55.419Z,5.87
2023-04-29T12:15:17.219Z,4.40
2023-04-29T12:18:38.936Z,4.10
2023-04-29T12:22:00.826Z,5.90
2023-04-29T12:25:26.194Z,3.37
2023-04-29T12:28:47.824Z,3.23
2023-04-29T12:32:13.524Z,4.73
2023-04-29T12:35:36.891Z,3.47
2023-04-29T12:39:00.318Z,3.13
2023-04-29T12:42:22.828Z,3.50
2023-04-29T12:45:43.952Z,2.57
2023-04-29T12:49:06.592Z,4.40
2023-04-29T12:52:28.009Z,2.87
2023-04-29T12:55:49.826Z,3.00
2023-04-29T12:59:12.589Z,3.80
2023-04-29T13:02:33.904Z,4.97
2023-04-29T13:05:55.444Z,3.70
2023-04-29T13:09:18.963Z,4.33
2023-04-29T13:12:40.832Z,3.30
2023-04-29T13:16:03.452Z,3.53
2023-04-29T13:19:43.483Z,3.83
2023-04-29T13:23:06.389Z,5.43
2023-04-29T13:26:27.872Z,4.13
2023-04-29T13:29:49.068Z,6.00
2023-04-29T13:33:13.576Z,5.90
2023-04-29T13:36:35.059Z,4.33
2023-04-29T13:39:57.636Z,3.73
2023-04-29T13:43:30.040Z,3.40
2023-04-29T13:46:58.532Z,4.40
2023-04-29T13:50:50.628Z,3.60
2023-04-29T13:54:37.438Z,3.97
2023-04-29T14:01:26.044Z,2.37
2023-04-29T14:04:50.220Z,2.20
2023-04-29T14:08:12.999Z,1.93
2023-04-29T14:11:36.602Z,1.63
2023-04-29T14:15:00.137Z,3.07
2023-04-29T14:18:22.212Z,2.10
2023-04-29T14:21:43.882Z,1.93
2023-04-29T14:25:08.383Z,1.70
2023-04-29T14:28:29.857Z,2.27
2023-04-29T14:31:51.543Z,1.90
2023-04-29T14:35:13.192Z,1.53
2023-04-29T14:38:34.412Z,2.37
2023-04-29T14:41:57.252Z,3.00
2023-04-29T14:45:18.664Z,4.10
2023-04-29T14:48:40.222Z,1.77
2023-04-29T14:52:02.002Z,1.47
2023-04-29T14:55:23.361Z,2.47
2023-04-29T14:58:46.202Z,2.30
2023-04-29T15:02:07.991Z,1.73
2023-04-29T15:05:30.419Z,2.43
2023-04-29T15:08:52.323Z,1.97
2023-04-29T15:12:14.329Z,1.90
2023-04-29T15:15:37.247Z,1.30
2023-04-29T15:18:59.177Z,2.30
2023-04-29T15:22:20.663Z,1.53
2023-04-29T15:25:42.164Z,1.43
2023-04-29T15:29:03.992Z,1.90
2023-04-29T15:32:31.468Z,3.60
2023-04-29T15:35:53.974Z,3.33
2023-04-29T15:39:16.545Z,1.17
2023-04-29T15:42:38.103Z,3.20
2023-04-29T15:46:00.146Z,2.77
2023-04-29T15:49:24.425Z,1.87
2023-04-29T15:52:46.449Z,2.33
2023-04-29T15:56:07.748Z,3.43
2023-04-29T15:59:29.467Z,3.17
2023-04-29T16:02:50.939Z,2.43
2023-04-29T16:06:13.825Z,4.07
2023-04-29T16:09:36.169Z,3.30
2023-04-29T16:12:57.728Z,3.80
2023-04-29T16:16:19.412Z,3.13
2023-04-29T16:19:41.172Z,3.00
2023-04-29T16:23:03.735Z,3.53
2023-04-29T16:26:26.178Z,2.87
2023-04-29T16:29:47.736Z,7.67
2023-04-29T16:33:09.157Z,3.30
2023-04-29T16:36:30.497Z,4.30
2023-04-29T16:39:53.333Z,3.30
2023-04-29T16:43:15.286Z,5.13
2023-04-29T16:46:36.591Z,3.67
2023-04-29T16:49:58.060Z,4.97
2023-04-29T16:53:19.572Z,3.50
2023-04-29T16:56:42.381Z,4.23
2023-04-29T17:00:04.170Z,2.27
2023-04-29T17:03:25.467Z,3.93
2023-04-29T17:06:47.173Z,6.77
2023-04-29T17:10:09.606Z,3.90
2023-04-29T17:13:32.184Z,3.67
2023-04-29T17:16:53.706Z,5.13
2023-04-29T17:20:15.137Z,5.37
2023-04-29T17:23:37.480Z,5.40
2023-04-29T17:26:59.744Z,4.27
2023-04-29T17:30:22.459Z,4.07
2023-04-29T17:33:54.680Z,6.67
2023-04-29T17:37:17.503Z,3.70
2023-04-29T17:40:38.805Z,10.10
2023-04-29T17:44:00.233Z,5.40
2023-04-29T17:47:23.319Z,3.87
2023-04-29T17:50:44.783Z,3.60
2023-04-29T17:54:07.673Z,3.63
2023-04-29T17:57:29.559Z,5.53
2023-04-29T18:00:52.158Z,3.47
2023-04-29T18:04:15.056Z,10.03
2023-04-29T18:07:36.276Z,7.30
2023-04-29T18:10:57.461Z,4.30
2023-04-29T18:14:19.092Z,4.57
2023-04-29T18:17:40.693Z,5.63
2023-04-29T18:21:03.556Z,3.43
2023-04-29T18:24:26.015Z,4.50
2023-04-29T18:27:47.987Z,3.90
2023-04-29T18:31:09.538Z,4.03
2023-04-29T18:34:31.149Z,5.70
2023-04-29T18:37:53.589Z,7.67
2023-04-29T18:41:14.975Z,8.33
2023-04-29T18:44:36.473Z,4.67
2023-04-29T18:47:57.882Z,6.67
2023-04-29T18:51:19.372Z,4.87
2023-04-29T18:54:42.316Z,5.33
2023-04-29T18:58:03.777Z,4.17
2023-04-29T19:01:25.781Z,5.43
2023-04-29T19:04:47.094Z,3.33
2023-04-29T19:08:08.423Z,5.53
2023-04-29T19:11:31.469Z,5.43
2023-04-29T19:14:52.799Z,3.90
2023-04-29T19:18:14.850Z,5.53
2023-04-29T19:21:37.286Z,6.70
2023-04-29T19:24:58.533Z,5.73
2023-04-29T19:28:21.418Z,6.97
2023-04-29T19:31:42.836Z,5.07
2023-04-29T19:35:04.550Z,5.77
2023-04-29T19:38:26.001Z,6.33
2023-04-29T19:41:47.454Z,7.00
2023-04-29T19:45:12.462Z,6.17
2023-04-29T19:48:34.245Z,3.90
2023-04-29T19:51:56.003Z,4.07
2023-04-29T19:55:17.886Z,6.27
2023-04-29T19:58:39.356Z,3.13
2023-04-29T20:02:02.257Z,4.13
2023-04-29T20:05:23.893Z,6.57
2023-04-29T20:08:45.451Z,5.50
2023-04-29T20:12:07.009Z,5.23
2023-04-29T20:15:28.391Z,4.57
2023-04-29T20:18:50.853Z,4.90
2023-04-29T20:22:13.293Z,4.63
2023-04-29T20:25:34.912Z,3.83
2023-04-29T20:28:56.432Z,4.80
2023-04-29T20:32:18.361Z,4.57
2023-04-29T20:35:41.319Z,5.17
2023-04-29T20:39:02.748Z,6.33
2023-04-29T20:42:24.338Z,4.47
2023-04-29T20:45:45.947Z,8.03
2023-04-29T20:49:07.362Z,6.47
2023-04-29T20:52:30.508Z,8.80
2023-04-29T20:55:51.684Z,8.50
2023-04-29T20:59:12.819Z,5.30
2023-04-29T21:02:34.304Z,5.90
2023-04-29T21:05:56.341Z,4.50
2023-04-29T21:09:19.011Z,5.63
2023-04-29T21:12:40.636Z,4.77
2023-04-29T21:16:02.245Z,4.67
2023-04-29T21:19:23.801Z,8.73
2023-04-29T21:22:45.790Z,3.87
2023-04-29T21:26:08.237Z,5.03
2023-04-29T21:29:29.705Z,4.27
2023-04-29T21:32:51.179Z,7.87
2023-04-29T21:36:13.136Z,3.93
2023-04-29T21:39:34.609Z,7.73
2023-04-29T21:42:58.859Z,5.33
2023-04-29T21:46:21.046Z,7.90
2023-04-29T21:49:42.562Z,6.80
2023-04-29T21:53:03.665Z,5.67
2023-04-29T21:56:25.122Z,5.10
2023-04-29T21:59:48.979Z,9.00
2023-04-29T22:03:10.905Z,9.33
2023-04-29T22:06:33.369Z,7.70
2023-04-29T22:09:54.757Z,4.80
2023-04-29T22:13:16.652Z,4.30
2023-04-29T22:16:39.368Z,8.13
2023-04-29T22:20:00.681Z,4.43
2023-04-29T22:23:22.589Z,4.03
2023-04-29T22:26:44.073Z,7.57
2023-04-29T22:30:06.544Z,5.97
2023-04-29T22:33:29.834Z,7.73
2023-04-29T22:36:50.917Z,11.77
2023-04-29T22:40:13.654Z,9.73
2023-04-29T22:43:34.872Z,5.93
2023-04-29T22:46:56.516Z,10.70
2023-04-29T22:50:19.634Z,11.90
2023-04-29T22:53:40.836Z,10.00
2023-04-29T22:57:03.489Z,6.97
2023-04-29T23:00:24.726Z,8.70
2023-04-29T23:03:46.161Z,9.03
2023-04-29T23:07:08.955Z,5.27
2023-04-29T23:10:32.626Z,7.90
2023-04-29T23:13:54.643Z,15.43
2023-04-29T23:17:16.085Z,7.23
2023-04-29T23:20:38.002Z,5.33
2023-04-29T23:24:00.715Z,7.17
2023-04-29T23:27:22.039Z,8.90
2023-04-29T23:30:43.791Z,7.47
2023-04-29T23:34:05.393Z,9.27
2023-04-29T23:37:26.508Z,7.40
2023-04-29T23:40:49.266Z,6.80
2023-04-29T23:44:10.797Z,8.80
2023-04-29T23:47:32.300Z,5.90
2023-04-29T23:50:53.684Z,5.97
2023-04-29T23:54:15.018Z,6.53
2023-04-29T23:57:37.846Z,7.83
